Time;durP1;ratioP1;P1;durP2;ratioP2;P2;SDS_P1;SDS_P2;PMS_P1;PMS_P2;Temp;Humidity;BMP_temperature;BMP_pressure;BME280_temperature;BME280_humidity;BME280_pressure;Samples;Min_cycle;Max_cycle;Signal;HPM_P1;HPM_P2
2023/01/12 00:02:38;;;;;;;19.63;3.78;;;;;;;5.68;82.43;99815.19;10436876;28;20045;-79
2023/01/12 00:07:42;;;;;;;10.25;2.42;;;;;;;5.87;81.60;99836.03;10457613;28;20041;-79
2023/01/12 00:12:45;;;;;;;4.43;1.77;;;;;;;6.13;80.11;99795.06;10449399;28;20398;-79
2023/01/12 00:17:48;;;;;;;4.97;1.35;;;;;;;6.17;79.60;99847.22;10440819;28;20119;-78
2023/01/12 00:22:52;;;;;;;4.03;1.17;;;;;;;6.34;79.08;99815.81;10453187;28;20060;-77
2023/01/12 00:27:54;;;;;;;9.23;1.80;;;;;;;6.57;77.92;99819.47;10431172;28;20112;-77
2023/01/12 00:32:57;;;;;;;7.60;1.58;;;;;;;6.50;77.39;99821.75;10431825;28;20065;-77
2023/01/12 00:38:01;;;;;;;7.75;2.03;;;;;;;6.79;77.38;99816.91;10435029;28;20077;-76
2023/01/12 00:48:25;;;;;;;8.27;1.88;;;;;;;6.42;78.66;99849.94;10440678;28;20045;-75
2023/01/12 00:53:30;;;;;;;8.23;1.58;;;;;;;6.50;78.15;99791.53;10430829;28;20045;-77
2023/01/12 00:58:34;;;;;;;6.82;1.05;;;;;;;6.32;79.23;99796.41;10438380;28;20049;-77
2023/01/12 01:03:36;;;;;;;7.38;1.52;;;;;;;6.37;80.95;99821.78;10442998;28;20128;-76
2023/01/12 01:08:40;;;;;;;6.13;1.75;;;;;;;6.33;83.43;99809.63;10432229;28;20037;-77
2023/01/12 01:13:44;;;;;;;19.50;1.92;;;;;;;6.09;85.19;99809.59;10438557;28;20037;-77
2023/01/12 01:18:46;;;;;;;7.95;2.95;;;;;;;6.29;85.83;99805.47;10433434;28;20510;-77
2023/01/12 01:23:51;;;;;;;6.75;2.55;;;;;;;6.11;86.40;99838.78;10421464;28;20153;-77
2023/01/12 01:28:55;;;;;;;12.13;2.10;;;;;;;5.81;87.50;99801.81;10435550;28;20061;-77
2023/01/12 01:33:58;;;;;;;10.85;2.30;;;;;;;6.10;86.28;99805.94;10434389;28;20040;-77
2023/01/12 01:39:02;;;;;;;9.95;2.10;;;;;;;5.94;86.79;99808.84;10423928;28;20068;-78
2023/01/12 01:44:26;;;;;;;8.88;2.55;;;;;;;6.03;85.67;99809.16;10424829;28;20197;-77
2023/01/12 01:49:32;;;;;;;10.85;1.77;;;;;;;6.03;84.83;99788.66;10423475;28;20139;-77
2023/01/12 01:54:40;;;;;;;12.73;2.53;;;;;;;6.31;84.33;99803.56;10431010;28;20037;-76
2023/01/12 01:59:49;;;;;;;6.70;1.98;;;;;;;6.36;83.00;99792.53;10427640;28;20073;-77
2023/01/12 02:04:52;;;;;;;14.15;3.10;;;;;;;6.48;84.73;99786.31;10427769;28;20069;-77
2023/01/12 02:09:56;;;;;;;10.15;2.92;;;;;;;6.31;85.62;99800.88;10414441;28;20041;-77
2023/01/12 02:20:48;;;;;;;7.53;2.22;;;;;;;6.03;89.04;99796.66;10432801;28;20214;-77
2023/01/12 02:26:11;;;;;;;8.63;2.63;;;;;;;6.21;88.38;99780.31;10444090;28;20042;-79
2023/01/12 02:31:39;;;;;;;7.05;2.95;;;;;;;6.25;88.78;99790.66;10442124;28;20092;-79
2023/01/12 02:36:52;;;;;;;4.95;2.28;;;;;;;6.11;88.91;99782.78;10437625;28;20140;-76
2023/01/12 02:47:33;;;;;;;6.00;2.38;;;;;;;6.25;88.95;99795.13;10447819;28;20046;-78
2023/01/12 02:52:36;;;;;;;9.48;2.85;;;;;;;6.40;88.29;99751.34;10447190;28;20196;-78
2023/01/12 02:57:40;;;;;;;11.20;4.35;;;;;;;6.74;86.74;99746.16;10450108;28;20048;-80
2023/01/12 03:02:44;;;;;;;11.15;3.05;;;;;;;6.58;86.89;99731.31;10445948;28;20087;-80
2023/01/12 03:07:51;;;;;;;8.38;3.50;;;;;;;6.40;87.69;99725.50;10447041;28;20073;-79
2023/01/12 03:12:58;;;;;;;6.85;2.72;;;;;;;6.77;86.02;99717.41;10442099;28;20084;-79
2023/01/12 03:18:06;;;;;;;10.02;3.10;;;;;;;6.75;86.05;99699.84;10444565;28;20041;-80
2023/01/12 03:23:13;;;;;;;12.63;2.95;;;;;;;6.60;86.74;99696.47;10440237;28;20073;-79
2023/01/12 03:28:19;;;;;;;7.28;2.65;;;;;;;6.65;86.16;99699.66;10440060;28;20052;-79
2023/01/12 03:33:24;;;;;;;8.43;2.45;;;;;;;6.60;86.75;99691.16;10448421;28;20045;-80
2023/01/12 03:38:36;;;;;;;10.45;2.58;;;;;;;6.84;86.08;99691.97;10451902;28;20094;-79
2023/01/12 03:43:43;;;;;;;14.55;2.80;;;;;;;6.34;88.60;99706.47;10458928;28;20052;-80
2023/01/12 03:48:54;;;;;;;8.48;2.13;;;;;;;6.61;87.46;99682.19;10459619;22;20055;-79
2023/01/12 03:53:58;;;;;;;17.63;4.03;;;;;;;6.76;87.43;99685.50;10490146;28;20052;-79
2023/01/12 03:59:01;;;;;;;5.57;2.58;;;;;;;6.71;88.48;99677.00;10492721;28;20087;-79
2023/01/12 04:04:05;;;;;;;8.65;3.65;;;;;;;6.40;90.41;99673.97;10458419;28;20090;-78
2023/01/12 04:09:08;;;;;;;9.75;2.92;;;;;;;6.37;91.32;99648.38;10480947;28;20485;-77
2023/01/12 04:14:11;;;;;;;10.10;2.83;;;;;;;6.14;92.51;99650.13;10464608;28;20097;-77
2023/01/12 04:19:15;;;;;;;5.45;2.38;;;;;;;6.23;91.81;99642.41;10490155;28;20055;-79
2023/01/12 04:24:18;;;;;;;11.82;3.20;;;;;;;6.54;91.41;99627.56;10478549;28;20065;-78
2023/01/12 04:29:21;;;;;;;13.45;3.55;;;;;;;6.40;91.49;99615.28;10464078;28;20048;-78
2023/01/12 04:34:25;;;;;;;8.20;3.08;;;;;;;6.32;91.57;99602.53;10473782;28;20040;-78
2023/01/12 04:39:28;;;;;;;12.57;2.75;;;;;;;6.22;91.76;99603.34;10477285;28;20053;-78
2023/01/12 04:44:33;;;;;;;9.50;2.72;;;;;;;6.32;91.79;99599.84;10477026;28;20091;-77
2023/01/12 04:49:37;;;;;;;12.27;2.55;;;;;;;6.36;91.59;99596.00;10475559;28;20044;-77
2023/01/12 04:54:40;;;;;;;12.48;2.78;;;;;;;6.38;91.47;99574.53;10481382;28;20084;-77
2023/01/12 04:59:43;;;;;;;17.27;3.78;;;;;;;6.25;92.21;99592.44;10477787;28;20040;-77
2023/01/12 05:04:47;;;;;;;6.97;3.25;;;;;;;6.31;92.41;99573.31;10479676;28;20033;-77
2023/01/12 05:15:11;;;;;;;11.50;3.38;;;;;;;6.31;91.64;99573.31;10461861;28;20045;-77
2023/01/12 05:20:15;;;;;;;8.18;2.55;;;;;;;5.94;93.47;99542.25;10480079;28;20041;-77
2023/01/12 05:25:18;;;;;;;6.65;1.80;;;;;;;6.13;92.93;99543.56;10471828;28;20040;-77
2023/01/12 05:30:21;;;;;;;5.78;1.77;;;;;;;6.09;93.15;99536.78;10467204;28;20048;-77
2023/01/12 05:35:25;;;;;;;5.05;0.93;;;;;;;6.23;90.76;99528.56;10481728;28;20041;-78
2023/01/12 05:40:28;;;;;;;4.55;1.58;;;;;;;6.18;97.90;99507.56;10474967;28;20456;-77
2023/01/12 05:45:31;;;;;;;3.25;1.02;;;;;;;6.06;97.94;99499.66;10470410;28;20053;-77
2023/01/12 05:50:36;;;;;;;4.63;1.33;;;;;;;6.26;94.91;99495.47;10472398;28;20557;-77
2023/01/12 05:55:44;;;;;;;5.93;1.25;;;;;;;6.31;92.86;99488.81;10482942;28;20509;-76
2023/01/12 06:00:47;;;;;;;5.57;1.60;;;;;;;6.12;92.36;99492.03;10471924;28;20045;-76
2023/01/12 06:05:57;;;;;;;4.15;1.40;;;;;;;6.14;91.13;99486.56;10476919;28;20132;-76
2023/01/12 06:11:01;;;;;;;4.80;1.08;;;;;;;6.08;91.85;99479.91;10455107;28;20116;-76
2023/01/12 06:16:08;;;;;;;0.88;0.60;;;;;;;6.11;91.00;99481.47;10485508;28;20037;-77
2023/01/12 06:21:12;;;;;;;3.10;1.00;;;;;;;6.20;91.72;99471.91;10481827;28;20045;-77
2023/01/12 06:26:15;;;;;;;4.22;1.20;;;;;;;6.15;90.83;99442.97;10481713;28;20052;-78
2023/01/12 06:31:18;;;;;;;2.35;0.68;;;;;;;5.75;92.58;99475.31;10489428;28;20068;-77
2023/01/12 06:36:22;;;;;;;1.75;0.50;;;;;;;5.90;92.57;99460.00;10502283;28;20071;-77
2023/01/12 06:46:45;;;;;;;1.30;0.90;;;;;;;5.69;92.85;99467.81;10488077;28;20379;-78
2023/01/12 06:51:50;;;;;;;4.03;0.55;;;;;;;5.61;92.17;99431.06;10488435;28;20575;-79
2023/01/12 06:56:54;;;;;;;0.70;0.47;;;;;;;5.55;93.06;99447.53;10490452;28;20464;-78
2023/01/12 07:01:57;;;;;;;2.65;0.50;;;;;;;5.80;92.74;99409.22;10483336;28;20155;-78
2023/01/12 07:07:01;;;;;;;0.85;0.65;;;;;;;5.73;91.82;99427.50;10477037;28;20532;-77
2023/01/12 07:12:05;;;;;;;6.32;0.68;;;;;;;5.52;92.12;99404.28;10470924;28;20118;-77
2023/01/12 07:17:08;;;;;;;3.70;0.30;;;;;;;5.81;92.58;99397.56;10470246;28;20049;-77
2023/01/12 07:22:12;;;;;;;1.48;0.40;;;;;;;5.52;92.23;99410.47;10461408;28;20067;-76
2023/01/12 07:27:15;;;;;;;1.48;0.70;;;;;;;5.73;91.91;99370.66;10457079;28;20037;-78
2023/01/12 07:32:17;;;;;;;0.63;0.30;;;;;;;5.72;91.81;99361.81;10473897;28;20083;-78
2023/01/12 07:37:22;;;;;;;4.05;0.35;;;;;;;5.83;91.57;99378.81;10494509;28;20041;-78
2023/01/12 07:42:24;;;;;;;0.73;0.45;;;;;;;5.58;91.66;99385.16;10480941;28;20144;-78
2023/01/12 07:47:27;;;;;;;4.22;0.55;;;;;;;5.72;91.89;99361.81;10446891;28;20048;-77
2023/01/12 07:52:31;;;;;;;0.95;0.32;;;;;;;5.47;92.08;99367.34;10475805;28;20036;-76
2023/01/12 07:57:36;;;;;;;0.90;0.32;;;;;;;5.64;92.68;99368.72;10460288;28;20123;-77
2023/01/12 08:02:38;;;;;;;1.52;0.40;;;;;;;5.37;93.02;99369.84;10472085;28;20044;-76
2023/01/12 08:07:43;;;;;;;1.95;0.30;;;;;;;5.71;94.92;99360.13;10465673;28;20077;-78
2023/01/12 08:12:46;;;;;;;0.68;0.65;;;;;;;5.65;92.50;99371.28;10476669;28;20099;-77
2023/01/12 08:17:54;;;;;;;0.20;0.20;;;;;;;5.30;95.00;99375.75;10457087;28;20555;-77
2023/01/12 08:23:02;;;;;;;0.63;0.08;;;;;;;5.48;93.44;99393.00;10451011;28;20041;-77
2023/01/12 08:28:08;;;;;;;1.35;0.20;;;;;;;5.53;94.92;99364.19;10451317;28;20041;-78
2023/01/12 08:33:11;;;;;;;1.15;0.40;;;;;;;5.67;94.38;99352.50;10466117;28;20120;-79
2023/01/12 08:38:15;;;;;;;2.88;0.38;;;;;;;5.75;94.28;99365.22;10474314;28;20502;-79
2023/01/12 08:44:00;;;;;;;2.75;0.30;;;;;;;5.49;96.21;99378.72;10473780;28;20649;-80
2023/01/12 08:48:41;;;;;;;1.48;0.40;;;;;;;5.63;97.01;99362.53;10495607;28;20115;-78
2023/01/12 08:53:45;;;;;;;1.45;0.43;;;;;;;6.14;92.97;99356.78;10494989;28;20041;-79
2023/01/12 08:58:48;;;;;;;0.90;0.63;;;;;;;5.95;95.41;99346.72;10476587;28;20052;-79
2023/01/12 09:03:51;;;;;;;1.38;0.60;;;;;;;5.95;96.87;99376.06;10476581;28;20036;-78
2023/01/12 09:08:57;;;;;;;1.90;0.50;;;;;;;6.02;98.23;99351.56;10465870;28;20041;-79
2023/01/12 09:14:00;;;;;;;1.98;0.63;;;;;;;6.10;96.25;99378.47;10476057;28;20037;-78
2023/01/12 09:19:04;;;;;;;0.60;0.60;;;;;;;6.32;96.07;99348.31;10494596;28;20037;-78
2023/01/12 09:24:08;;;;;;;1.17;0.85;;;;;;;6.47;95.83;99360.38;10502807;28;20059;-78
2023/01/12 09:29:12;;;;;;;2.25;0.80;;;;;;;6.25;96.46;99347.91;10499566;28;20059;-78
2023/01/12 09:34:15;;;;;;;1.55;1.02;;;;;;;6.32;96.71;99390.97;10483099;28;20076;-78
2023/01/12 09:39:20;;;;;;;1.48;1.10;;;;;;;6.55;97.89;99371.28;10474199;28;20045;-79
2023/01/12 09:50:00;;;;;;;2.40;1.90;;;;;;;6.80;95.19;99401.34;10482784;28;20421;-79
2023/01/12 09:55:17;;;;;;;3.17;1.23;;;;;;;6.33;97.58;99369.50;10480624;28;20052;-78
2023/01/12 10:00:21;;;;;;;4.80;1.95;;;;;;;6.89;97.14;99384.63;10477901;28;20033;-79
2023/01/12 10:05:36;;;;;;;3.17;1.75;;;;;;;6.99;96.03;99379.38;10485107;28;20552;-80
2023/01/12 10:10:55;;;;;;;3.20;1.17;;;;;;;6.75;98.01;99388.38;10471815;28;20084;-78
2023/01/12 10:16:02;;;;;;;7.20;1.52;;;;;;;6.84;97.96;99382.28;10483163;28;20199;-77
2023/01/12 10:21:09;;;;;;;6.78;2.13;;;;;;;6.91;98.05;99396.03;10482995;28;20080;-77
2023/01/12 10:26:21;;;;;;;3.50;2.65;;;;;;;7.10;97.54;99398.03;10488712;28;20402;-77
2023/01/12 10:31:25;;;;;;;5.83;2.80;;;;;;;7.17;98.00;99399.22;10476478;28;20044;-77
2023/01/12 10:36:29;;;;;;;2.53;2.05;;;;;;;7.03;98.75;99397.69;10471982;28;20824;-77
2023/01/12 10:41:34;;;;;;;3.20;2.25;;;;;;;7.26;97.48;99398.44;10470068;28;20095;-77
2023/01/12 10:46:37;;;;;;;3.67;1.48;;;;;;;7.11;99.16;99404.25;10470332;28;20041;-76
2023/01/12 10:51:50;;;;;;;2.38;2.10;;;;;;;7.27;99.42;99394.00;10470984;28;20055;-77
2023/01/12 10:56:58;;;;;;;3.10;2.08;;;;;;;7.32;98.21;99396.25;10476356;28;20053;-77
2023/01/12 11:02:14;;;;;;;5.25;1.60;;;;;;;7.32;98.96;99398.94;10473778;28;20040;-78
2023/01/12 11:07:20;;;;;;;2.00;1.80;;;;;;;7.49;97.64;99414.41;10505594;28;20036;-78
2023/01/12 11:12:30;;;;;;;7.00;1.67;;;;;;;7.33;100.00;99403.31;10488571;28;20040;-77
2023/01/12 11:17:47;;;;;;;6.35;2.28;;;;;;;7.67;100.00;99393.31;10459062;28;20033;-78
2023/01/12 11:22:54;;;;;;;4.40;2.20;;;;;;;7.42;100.00;99386.50;10464391;28;20047;-77
2023/01/12 11:28:04;;;;;;;4.70;2.28;;;;;;;7.57;98.22;99368.31;10473957;28;20501;-78
2023/01/12 11:33:12;;;;;;;6.38;2.15;;;;;;;7.53;99.45;99397.13;10478174;28;20053;-77
2023/01/12 11:38:20;;;;;;;5.22;2.97;;;;;;;7.74;100.00;99394.50;10485726;28;20041;-79
2023/01/12 11:43:54;;;;;;;3.25;2.70;;;;;;;7.44;99.29;99392.56;10486751;28;20049;-78
2023/01/12 11:49:06;;;;;;;6.88;3.80;;;;;;;7.50;100.00;99411.59;10484156;28;20033;-78
2023/01/12 11:54:15;;;;;;;3.63;2.53;;;;;;;7.37;100.00;99404.75;10483330;28;20086;-78
2023/01/12 11:59:26;;;;;;;3.70;2.35;;;;;;;7.50;100.00;99392.91;10486501;28;20557;-78
2023/01/12 12:04:44;;;;;;;4.13;2.92;;;;;;;7.69;98.64;99386.84;10487065;28;20057;-79
2023/01/12 12:10:05;;;;;;;5.38;3.90;;;;;;;7.72;98.78;99378.56;10475171;28;20044;-79
2023/01/12 12:15:21;;;;;;;3.53;3.17;;;;;;;7.69;98.82;99392.19;10475632;28;20074;-77
2023/01/12 12:20:33;;;;;;;6.53;3.55;;;;;;;7.76;99.94;99389.84;10475186;28;20041;-78
2023/01/12 12:25:45;;;;;;;3.40;2.83;;;;;;;7.55;100.00;99386.34;10470069;28;20032;-77
2023/01/12 12:31:17;;;;;;;4.20;2.67;;;;;;;7.79;100.00;99388.72;10476237;28;20033;-78
2023/01/12 12:36:32;;;;;;;3.88;3.45;;;;;;;7.74;100.00;99375.78;10475245;28;20045;-78
2023/01/12 12:47:10;;;;;;;3.47;3.08;;;;;;;7.98;98.60;99370.16;10473637;28;20480;-79
2023/01/12 12:52:13;;;;;;;;;;;;;;;7.77;99.71;99399.56;10473811;28;20043;-78
2023/01/12 12:57:16;;;;;;;3.25;2.85;;;;;;;7.89;99.64;99381.63;10483447;28;20421;-77
2023/01/12 13:02:38;;;;;;;1.95;1.75;;;;;;;8.07;98.24;99380.06;10492041;28;20469;-77
2023/01/12 13:07:44;;;;;;;2.47;2.27;;;;;;;7.87;99.62;99370.22;10481089;28;20040;-78
2023/01/12 13:13:03;;;;;;;1.90;1.80;;;;;;;7.91;99.35;99368.97;10479672;28;20471;-78
2023/01/12 13:18:41;;;;;;;1.90;1.80;;;;;;;7.88;99.57;99361.22;10482296;28;20076;-77
2023/01/12 13:23:49;;;;;;;3.65;2.35;;;;;;;8.02;99.54;99381.44;10473644;28;20067;-77
2023/01/12 13:29:25;;;;;;;5.68;2.88;;;;;;;7.94;99.79;99356.19;10475980;28;20464;-77
2023/01/12 13:34:40;;;;;;;2.95;2.65;;;;;;;7.97;99.41;99352.41;10476027;28;20525;-77
2023/01/12 13:39:52;;;;;;;3.90;2.40;;;;;;;8.11;99.42;99380.63;10481843;28;20079;-78
2023/01/12 13:44:55;;;;;;;1.13;1.08;;;;;;;8.01;98.90;99358.31;10474008;28;20414;-78
2023/01/12 13:50:01;;;;;;;3.38;2.03;;;;;;;7.90;99.81;99364.63;10470935;28;20072;-77
2023/01/12 13:55:18;;;;;;;3.78;2.20;;;;;;;8.10;99.82;99370.91;10485268;28;20053;-78
2023/01/12 14:00:22;;;;;;;3.90;2.08;;;;;;;7.98;100.00;99377.31;10465362;28;20065;-78
2023/01/12 14:05:54;;;;;;;1.20;1.10;;;;;;;7.87;100.00;99386.25;10469594;28;20097;-78
2023/01/12 14:11:10;;;;;;;3.53;1.65;;;;;;;7.99;100.00;99371.84;10461207;28;20051;-78
2023/01/12 14:21:42;;;;;;;5.95;1.50;;;;;;;7.97;100.00;99381.81;10467013;28;20130;-78
2023/01/12 14:26:46;;;;;;;2.85;1.83;;;;;;;8.09;98.60;99378.09;10464418;28;20047;-78
2023/01/12 14:31:50;;;;;;;1.67;1.58;;;;;;;7.71;100.00;99394.75;10464525;28;20108;-78
2023/01/12 14:36:56;;;;;;;1.65;1.55;;;;;;;7.91;99.90;99382.34;10472725;28;20067;-78
2023/01/12 14:47:25;;;;;;;1.58;1.35;;;;;;;7.83;100.00;99396.38;10492635;28;20056;-78
2023/01/12 14:52:32;;;;;;;1.88;1.58;;;;;;;7.93;99.50;99377.72;10498867;28;20043;-78
2023/01/12 14:57:35;;;;;;;3.00;2.03;;;;;;;7.84;100.00;99382.00;10489263;28;20041;-79
2023/01/12 15:02:40;;;;;;;2.97;2.35;;;;;;;8.04;99.48;99369.63;10488287;28;20041;-79
2023/01/12 15:07:56;;;;;;;3.20;1.88;;;;;;;8.08;99.64;99375.53;10487471;28;20136;-79
2023/01/12 15:13:18;;;;;;;2.17;1.98;;;;;;;8.04;98.68;99358.09;10476248;28;20044;-78
2023/01/12 15:29:03;;;;;;;3.97;2.22;;;;;;;7.79;99.94;99359.31;10486838;28;20048;-78
2023/01/12 15:34:06;;;;;;;2.38;1.90;;;;;;;8.13;98.48;99366.13;10486827;28;20045;-78
2023/01/12 15:39:13;;;;;;;3.78;2.47;;;;;;;7.94;98.15;99374.91;10482401;28;20041;-78
2023/01/12 15:44:18;;;;;;;1.48;1.27;;;;;;;7.93;98.83;99369.69;10481164;28;20052;-77
2023/01/12 15:49:21;;;;;;;4.13;1.05;;;;;;;7.84;97.55;99423.94;10463832;28;20529;-77
2023/01/12 15:54:25;;;;;;;4.30;1.90;;;;;;;8.10;97.09;99371.75;10467625;28;20044;-78
2023/01/12 15:59:28;;;;;;;1.55;1.23;;;;;;;7.86;97.99;99365.84;10477251;28;20422;-77
2023/01/12 16:04:30;;;;;;;2.30;1.40;;;;;;;8.09;96.73;99387.94;10471416;28;20045;-78
2023/01/12 16:09:50;;;;;;;3.05;1.83;;;;;;;7.91;97.99;99372.50;10471335;28;20117;-76
2023/01/12 16:14:55;;;;;;;2.97;1.90;;;;;;;7.99;98.47;99371.84;10481789;28;20044;-77
2023/01/12 16:19:58;;;;;;;4.07;2.00;;;;;;;7.95;96.54;99373.06;10484983;28;20033;-78
2023/01/12 16:25:02;;;;;;;3.55;1.90;;;;;;;7.79;99.36;99375.38;10507310;28;20049;-77
2023/01/12 16:30:07;;;;;;;2.42;1.83;;;;;;;7.90;97.50;99383.34;10518604;28;20044;-78
2023/01/12 16:35:10;;;;;;;2.97;2.55;;;;;;;7.79;97.85;99365.53;10491985;28;20053;-77
2023/01/12 16:40:14;;;;;;;4.80;3.25;;;;;;;8.07;99.75;99352.47;10513757;28;20067;-78
2023/01/12 16:45:17;;;;;;;3.55;2.03;;;;;;;7.86;97.23;99347.97;10485463;28;20406;-78
2023/01/12 16:50:20;;;;;;;3.63;3.00;;;;;;;7.95;97.63;99360.56;10447111;28;20425;-77
2023/01/12 16:55:24;;;;;;;2.85;2.47;;;;;;;7.75;99.13;99366.75;10438372;28;20058;-77
2023/01/12 17:00:27;;;;;;;3.25;2.95;;;;;;;7.83;98.05;99337.56;10435433;28;20053;-78
2023/01/12 17:05:31;;;;;;;4.00;3.15;;;;;;;7.93;98.03;99357.19;10429669;28;20070;-77
2023/01/12 17:10:35;;;;;;;3.80;3.03;;;;;;;8.06;97.59;99340.88;10428194;28;20049;-78
2023/01/12 17:15:38;;;;;;;4.28;3.38;;;;;;;7.99;97.89;99333.56;10444348;28;20051;-78
2023/01/12 17:20:41;;;;;;;2.03;1.92;;;;;;;7.90;97.45;99320.00;10441168;28;20045;-77
2023/01/12 17:25:45;;;;;;;4.57;2.67;;;;;;;8.23;96.04;99301.13;10445260;28;20049;-78
2023/01/12 17:30:48;;;;;;;3.92;2.97;;;;;;;8.07;96.20;99345.28;10429808;28;20045;-78
2023/01/12 17:35:51;;;;;;;1.92;1.67;;;;;;;8.06;97.20;99324.00;10429279;28;20072;-78
2023/01/12 17:40:56;;;;;;;2.47;1.77;;;;;;;7.92;97.21;99306.50;10422232;28;20822;-78
2023/01/12 17:46:00;;;;;;;1.88;1.77;;;;;;;8.03;96.77;99318.94;10430299;28;20045;-78
2023/01/12 17:51:10;;;;;;;2.42;2.13;;;;;;;8.14;96.51;99321.50;10456211;28;20079;-77
2023/01/12 17:56:14;;;;;;;2.63;2.42;;;;;;;8.17;96.14;99316.75;10424337;28;20047;-77
2023/01/12 18:01:17;;;;;;;1.63;1.25;;;;;;;7.89;96.49;99312.94;10422200;28;20041;-77
2023/01/12 18:06:20;;;;;;;2.55;2.35;;;;;;;7.91;97.65;99307.47;10430643;28;20056;-78
2023/01/12 18:11:32;;;;;;;1.92;1.73;;;;;;;7.67;100.00;99308.59;10421554;28;20068;-78
2023/01/12 18:16:35;;;;;;;1.92;1.83;;;;;;;7.86;100.00;99318.56;10426892;28;20131;-78
2023/01/12 18:21:38;;;;;;;1.80;1.55;;;;;;;7.75;100.00;99302.59;10440004;28;20044;-77
2023/01/12 18:26:42;;;;;;;3.55;2.00;;;;;;;7.91;100.00;99288.75;10444934;28;20053;-77
2023/01/12 18:31:46;;;;;;;3.25;2.50;;;;;;;8.18;98.29;99289.00;10443928;28;20044;-78
2023/01/12 18:36:48;;;;;;;2.35;1.77;;;;;;;7.85;100.00;99295.50;10434168;28;21492;-78
2023/01/12 18:58:01;;;;;;;1.58;1.48;;;;;;;7.90;98.37;99293.28;10433228;28;20079;-77
2023/01/12 19:03:04;;;;;;;2.33;2.13;;;;;;;7.98;97.36;99294.41;10450709;28;20876;-78
2023/01/12 19:18:45;;;;;;;1.45;1.35;;;;;;;7.79;98.84;99301.38;10442290;28;20049;-78
2023/01/12 19:29:10;;;;;;;3.38;2.78;;;;;;;8.08;97.15;99296.16;10440642;28;21203;-80
2023/01/12 19:34:12;;;;;;;3.10;2.53;;;;;;;8.17;96.06;99284.66;10430021;28;20046;-79
2023/01/12 19:39:24;;;;;;;3.13;2.70;;;;;;;7.98;98.29;99294.41;10442597;28;20132;-79
2023/01/12 19:44:28;;;;;;;1.95;1.85;;;;;;;8.06;98.18;99284.72;10433483;28;20049;-79
2023/01/12 19:49:31;;;;;;;2.53;1.83;;;;;;;8.02;97.12;99298.53;10438346;28;20745;-79
2023/01/12 19:54:34;;;;;;;2.40;2.20;;;;;;;8.20;96.87;99280.00;10439010;28;20188;-80
2023/01/12 19:59:38;;;;;;;3.55;2.28;;;;;;;7.83;99.22;99297.44;10448328;28;20071;-78
2023/01/12 20:04:41;;;;;;;3.60;2.72;;;;;;;8.00;98.46;99289.78;10474840;28;20266;-79
2023/01/12 20:09:45;;;;;;;2.92;2.70;;;;;;;7.99;98.32;99294.28;10450231;28;20087;-79
2023/01/12 20:14:49;;;;;;;2.97;2.45;;;;;;;7.97;97.67;99264.16;10467549;28;20136;-77
2023/01/12 20:19:52;;;;;;;3.40;3.10;;;;;;;7.98;98.18;99284.59;10477227;28;21338;-78
2023/01/12 20:24:59;;;;;;;3.15;2.30;;;;;;;8.15;96.62;99275.91;10452117;28;20108;-78
2023/01/12 20:30:06;;;;;;;5.13;2.63;;;;;;;7.89;97.96;99293.38;10448587;28;20057;-79
2023/01/12 20:35:11;;;;;;;2.75;2.50;;;;;;;7.86;98.27;99293.66;10450569;28;20509;-79
2023/01/12 20:40:15;;;;;;;3.00;2.65;;;;;;;7.91;99.06;99275.41;10446789;28;20420;-79
2023/01/12 20:45:19;;;;;;;2.22;1.73;;;;;;;7.72;98.76;99309.06;10449342;28;20121;-78
2023/01/12 20:50:24;;;;;;;3.70;3.05;;;;;;;7.72;100.00;99294.84;10441109;28;20059;-79
2023/01/12 20:55:27;;;;;;;1.52;1.40;;;;;;;7.68;99.16;99277.41;10430687;28;20052;-78
2023/01/12 21:00:31;;;;;;;4.72;3.13;;;;;;;8.10;97.59;99280.81;10439564;28;20699;-78
2023/01/12 21:05:34;;;;;;;2.60;2.40;;;;;;;7.81;98.83;99285.19;10437972;28;20135;-78
2023/01/12 21:10:38;;;;;;;4.22;2.47;;;;;;;7.93;98.42;99279.63;10427585;28;20057;-78
2023/01/12 21:15:43;;;;;;;3.03;1.80;;;;;;;7.90;98.14;99279.06;10436825;28;20057;-79
2023/01/12 21:20:46;;;;;;;2.67;2.40;;;;;;;8.03;98.03;99276.13;10439260;28;20121;-78
2023/01/12 21:25:50;;;;;;;2.85;2.65;;;;;;;8.15;96.59;99283.94;10440885;28;20044;-78
2023/01/12 21:30:54;;;;;;;2.90;2.70;;;;;;;8.22;95.76;99284.22;10438472;28;20048;-78
2023/01/12 21:35:58;;;;;;;3.20;2.90;;;;;;;8.16;96.71;99263.38;10438062;28;20054;-78
2023/01/12 21:41:02;;;;;;;2.55;2.28;;;;;;;8.26;95.87;99272.28;10440660;28;20921;-78
2023/01/12 21:46:09;;;;;;;2.78;2.58;;;;;;;8.36;94.83;99261.59;10441653;28;20054;-78
2023/01/12 21:51:13;;;;;;;3.05;2.17;;;;;;;8.03;95.39;99273.47;10449766;28;20052;-78
2023/01/12 21:56:16;;;;;;;2.53;1.77;;;;;;;8.44;93.93;99245.69;10446247;28;20588;-79
2023/01/12 22:01:20;;;;;;;1.98;1.88;;;;;;;8.13;95.48;99260.97;10436927;28;20055;-78
2023/01/12 22:06:24;;;;;;;3.08;1.88;;;;;;;8.24;94.23;99244.81;10441208;28;20053;-78
2023/01/12 22:11:27;;;;;;;2.35;1.63;;;;;;;8.12;94.38;99254.78;10477083;28;20226;-78
2023/01/12 22:16:31;;;;;;;4.38;2.63;;;;;;;8.20;94.41;99246.09;10462307;28;20041;-78
2023/01/12 22:21:34;;;;;;;2.35;1.83;;;;;;;8.34;93.54;99266.25;10436588;28;20052;-79
2023/01/12 22:26:36;;;;;;;3.70;2.63;;;;;;;8.35;93.78;99249.22;10438974;28;20179;-78
2023/01/12 22:31:41;;;;;;;2.35;2.15;;;;;;;8.33;93.52;99248.50;10434863;28;21335;-79
2023/01/12 22:36:44;;;;;;;2.33;2.13;;;;;;;8.15;93.81;99259.03;10466537;28;20064;-77
2023/01/12 22:41:49;;;;;;;3.08;2.10;;;;;;;7.91;100.00;99251.34;10475592;28;20076;-78
2023/01/12 22:46:53;;;;;;;3.45;2.47;;;;;;;8.21;94.34;99258.47;10484924;28;20052;-78
2023/01/12 22:51:56;;;;;;;3.85;2.95;;;;;;;8.07;95.96;99245.47;10479319;28;20064;-78
2023/01/12 22:57:00;;;;;;;5.35;2.70;;;;;;;7.94;95.28;99264.44;10489868;28;20048;-79
2023/01/12 23:02:58;;;;;;;7.13;3.40;;;;;;;8.06;94.37;99260.66;10503190;28;20053;-78
2023/01/12 23:07:27;;;;;;;4.20;2.55;;;;;;;8.11;93.46;99255.75;10488048;28;20053;-78
2023/01/12 23:12:30;;;;;;;9.00;4.20;;;;;;;8.63;91.28;99233.34;10482183;28;20048;-76
2023/01/12 23:17:35;;;;;;;;;;;;;;;8.43;91.54;99238.66;10480638;28;20119;-79
2023/01/12 23:22:38;;;;;;;4.45;3.35;;;;;;;8.22;92.19;99229.88;10475615;28;20364;-78
2023/01/12 23:27:41;;;;;;;4.30;3.85;;;;;;;8.29;91.62;99247.09;10477903;28;20051;-78
2023/01/12 23:32:46;;;;;;;4.57;2.83;;;;;;;8.17;92.46;99235.63;10479325;28;20076;-78
2023/01/12 23:37:48;;;;;;;3.22;2.80;;;;;;;7.99;92.99;99246.16;10479867;28;20044;-77
2023/01/12 23:42:51;;;;;;;2.58;1.90;;;;;;;7.86;95.46;99241.03;10478541;28;20120;-78
2023/01/12 23:47:56;;;;;;;3.40;3.10;;;;;;;8.13;94.44;99224.38;10474257;28;20044;-77
2023/01/12 23:52:59;;;;;;;4.10;3.35;;;;;;;8.35;93.41;99198.38;10475800;28;20124;-78
2023/01/12 23:58:02;;;;;;;6.00;3.72;;;;;;;8.33;93.58;99194.97;10479570;28;20094;-78
